createdAt,value
2018-07-28T00:00:31.199Z,24.745178
2018-07-28T00:01:47.080Z,24.775391
2018-07-28T00:03:02.980Z,24.815674
2018-07-28T00:04:18.847Z,24.785461
2018-07-28T00:05:34.716Z,24.714966
2018-07-28T00:06:50.631Z,24.76532
2018-07-28T00:08:06.572Z,24.745178
2018-07-28T00:09:22.445Z,24.775391
2018-07-28T00:10:38.344Z,24.745178
2018-07-28T00:11:54.221Z,24.624329
2018-07-28T00:13:10.122Z,24.473267
2018-07-28T00:14:26.047Z,24.412842
2018-07-28T00:15:41.954Z,24.402771
2018-07-28T00:16:57.835Z,24.483337
2018-07-28T00:18:13.713Z,24.503479
2018-07-28T00:19:29.622Z,24.503479
2018-07-28T00:20:45.583Z,24.533691
2018-07-28T00:22:01.498Z,24.463196
2018-07-28T00:23:17.365Z,24.432983
2018-07-28T00:24:34.267Z,24.372559
2018-07-28T00:25:50.158Z,24.281921
2018-07-28T00:27:05.994Z,24.372559
2018-07-28T00:28:21.860Z,24.372559
2018-07-28T00:29:37.770Z,24.26178
2018-07-28T00:30:53.638Z,24.322205
2018-07-28T00:32:09.524Z,24.362488
2018-07-28T00:33:25.384Z,24.382629
2018-07-28T00:34:41.302Z,24.443054
2018-07-28T00:35:57.184Z,24.473267
2018-07-28T00:37:13.051Z,24.412842
2018-07-28T00:38:28.951Z,24.443054
2018-07-28T00:39:44.808Z,24.342346
2018-07-28T00:41:00.677Z,24.342346
2018-07-28T00:42:16.551Z,24.382629
2018-07-28T00:43:32.410Z,24.372559
2018-07-28T00:44:48.314Z,24.372559
2018-07-28T00:46:04.176Z,24.382629
2018-07-28T00:47:20.071Z,24.443054
2018-07-28T00:48:35.959Z,24.312134
2018-07-28T00:49:51.835Z,24.251709
2018-07-28T00:51:07.708Z,24.191284
2018-07-28T00:52:23.567Z,24.100647
2018-07-28T00:53:39.437Z,24.110718
2018-07-28T00:54:55.340Z,24.040222
2018-07-28T00:56:11.214Z,24.090576
2018-07-28T00:57:27.078Z,24.130859
2018-07-28T00:58:42.968Z,24.161072
2018-07-28T00:59:58.847Z,24.221497
2018-07-28T01:01:14.732Z,24.110718
2018-07-28T01:02:30.596Z,24.090576
2018-07-28T01:03:46.484Z,24.110718
2018-07-28T01:05:02.386Z,24.14093
2018-07-28T01:06:18.281Z,24.040222
2018-07-28T01:07:34.184Z,23.949585
2018-07-28T01:08:50.078Z,23.959656
2018-07-28T01:10:05.981Z,23.989868
2018-07-28T01:11:21.891Z,23.939514
2018-07-28T01:12:37.800Z,23.949585
2018-07-28T01:13:54.653Z,24.01001
2018-07-28T01:15:10.546Z,23.959656
2018-07-28T01:16:26.437Z,23.858948
2018-07-28T01:17:42.310Z,23.88916
2018-07-28T01:18:58.164Z,23.919373
2018-07-28T01:20:14.029Z,23.848877
2018-07-28T01:21:29.914Z,23.808594
2018-07-28T01:22:45.869Z,23.879089
2018-07-28T01:24:01.764Z,23.879089
2018-07-28T01:25:17.644Z,23.808594
2018-07-28T01:26:33.583Z,23.768311
2018-07-28T01:27:49.511Z,23.728027
2018-07-28T01:29:05.405Z,23.738098
2018-07-28T01:30:21.284Z,23.788452
2018-07-28T01:31:37.180Z,23.848877
2018-07-28T01:32:53.030Z,23.919373
2018-07-28T01:34:08.918Z,23.848877
2018-07-28T01:35:24.788Z,23.707886
2018-07-28T01:36:40.650Z,23.63739
2018-07-28T01:37:56.513Z,23.63739
2018-07-28T01:39:12.373Z,23.687744
2018-07-28T01:40:28.315Z,23.667603
2018-07-28T01:41:44.177Z,23.75824
2018-07-28T01:43:00.035Z,23.848877
2018-07-28T01:44:15.963Z,23.879089
2018-07-28T01:45:31.813Z,23.838806
2018-07-28T01:46:47.700Z,23.617249
2018-07-28T01:48:03.568Z,23.63739
2018-07-28T01:49:19.498Z,23.707886
2018-07-28T01:50:35.344Z,23.707886
2018-07-28T01:51:51.226Z,23.697815
2018-07-28T01:53:07.151Z,23.667603
2018-07-28T01:54:23.032Z,23.697815
2018-07-28T01:55:38.929Z,23.687744
2018-07-28T01:56:54.798Z,23.657532
2018-07-28T01:58:10.676Z,23.617249
2018-07-28T01:59:26.589Z,23.546753
2018-07-28T02:00:42.490Z,23.446045
2018-07-28T02:01:58.357Z,23.335266
2018-07-28T02:03:14.237Z,23.325195
2018-07-28T02:04:30.122Z,23.355408
2018-07-28T02:05:46.018Z,23.395691
2018-07-28T02:07:01.917Z,23.395691
2018-07-28T02:08:17.804Z,23.435974
2018-07-28T02:09:33.676Z,23.335266
2018-07-28T02:10:49.592Z,23.315125
2018-07-28T02:12:05.447Z,23.294983
2018-07-28T02:13:21.302Z,23.294983
2018-07-28T02:14:37.173Z,23.355408
2018-07-28T02:15:53.040Z,23.264771
2018-07-28T02:17:08.910Z,23.315125
2018-07-28T02:18:24.832Z,23.355408
2018-07-28T02:19:40.705Z,23.446045
2018-07-28T02:20:56.611Z,23.466187
2018-07-28T02:22:12.476Z,23.486328
2018-07-28T02:23:28.339Z,23.446045
2018-07-28T02:24:44.227Z,23.38562
2018-07-28T02:26:00.109Z,23.395691
2018-07-28T02:27:15.995Z,23.365479
2018-07-28T02:28:31.876Z,23.415833
2018-07-28T02:29:47.738Z,23.395691
2018-07-28T02:31:03.602Z,23.294983
2018-07-28T02:32:19.483Z,23.365479
2018-07-28T02:33:35.341Z,23.284912
2018-07-28T02:34:51.211Z,23.2547
2018-07-28T02:36:07.060Z,23.284912
2018-07-28T02:37:22.945Z,23.294983
2018-07-28T02:38:38.816Z,23.315125
2018-07-28T02:39:54.670Z,23.204346
2018-07-28T02:41:10.572Z,23.103638
2018-07-28T02:42:26.455Z,23.073425
2018-07-28T02:43:43.315Z,23.023071
2018-07-28T02:44:59.195Z,23.013
2018-07-28T02:46:15.082Z,22.992859
2018-07-28T02:47:30.965Z,22.922363
2018-07-28T02:48:46.846Z,22.88208
2018-07-28T02:50:02.710Z,22.700806
2018-07-28T02:51:18.564Z,22.63031
2018-07-28T02:52:34.422Z,22.731018
2018-07-28T02:53:50.283Z,22.781372
2018-07-28T02:55:06.148Z,22.63031
2018-07-28T02:56:22.014Z,22.610168
2018-07-28T02:57:37.897Z,22.428894
2018-07-28T02:58:53.789Z,22.438965
2018-07-28T03:00:09.719Z,22.529602
2018-07-28T03:01:25.514Z,22.559814
2018-07-28T03:02:41.435Z,22.710876
2018-07-28T03:03:57.319Z,22.771301
2018-07-28T03:05:14.180Z,22.771301
2018-07-28T03:06:30.058Z,22.63031
2018-07-28T03:07:45.946Z,22.650452
2018-07-28T03:09:01.813Z,22.670593
2018-07-28T03:10:17.673Z,22.469177
2018-07-28T03:11:33.555Z,22.559814
2018-07-28T03:12:49.447Z,22.590027
2018-07-28T03:14:05.348Z,22.519531
2018-07-28T03:15:21.220Z,22.398682
2018-07-28T03:16:37.102Z,22.358398
2018-07-28T03:17:52.983Z,22.187195
2018-07-28T03:19:08.870Z,22.217407
2018-07-28T03:20:24.767Z,22.277832
2018-07-28T03:21:40.639Z,22.358398
2018-07-28T03:22:56.509Z,22.25769
2018-07-28T03:24:12.387Z,22.156982
2018-07-28T03:25:28.237Z,22.187195
2018-07-28T03:26:44.101Z,22.308044
2018-07-28T03:27:59.968Z,22.297974
2018-07-28T03:29:15.835Z,22.217407
2018-07-28T03:30:31.716Z,22.207336
2018-07-28T03:31:47.594Z,22.25769
2018-07-28T03:33:03.477Z,22.136841
2018-07-28T03:34:19.349Z,21.834717
2018-07-28T03:35:35.219Z,21.804504
2018-07-28T03:36:51.078Z,21.875
2018-07-28T03:38:06.963Z,21.905212
2018-07-28T03:39:22.862Z,21.985779
2018-07-28T03:40:38.702Z,21.985779
2018-07-28T03:41:54.606Z,21.885071
2018-07-28T03:43:10.503Z,21.915283
2018-07-28T03:44:26.388Z,21.965637
2018-07-28T03:45:42.277Z,21.905212
2018-07-28T03:46:58.137Z,21.935425
2018-07-28T03:48:14.028Z,21.875
2018-07-28T03:49:29.923Z,21.834717
2018-07-28T03:50:45.809Z,21.905212
2018-07-28T03:52:02.661Z,21.985779
2018-07-28T03:53:18.501Z,21.99585
2018-07-28T03:54:34.449Z,21.965637
2018-07-28T03:55:50.301Z,21.915283
2018-07-28T03:57:06.182Z,21.885071
2018-07-28T03:58:22.047Z,21.854858
2018-07-28T03:59:37.924Z,21.854858
2018-07-28T04:00:53.820Z,21.834717
2018-07-28T04:02:09.748Z,21.582947
2018-07-28T04:03:25.599Z,21.472168
2018-07-28T04:04:41.469Z,21.50238
2018-07-28T04:05:57.322Z,21.512451
2018-07-28T04:07:13.280Z,21.351318
2018-07-28T04:08:29.112Z,21.37146
2018-07-28T04:09:45.001Z,21.37146
2018-07-28T04:11:00.868Z,21.512451
2018-07-28T04:12:16.751Z,21.683655
2018-07-28T04:13:32.621Z,21.844788
2018-07-28T04:14:48.485Z,21.915283
2018-07-28T04:16:04.360Z,21.875
2018-07-28T04:17:20.200Z,21.784363
2018-07-28T04:18:36.056Z,21.723938
2018-07-28T04:19:51.961Z,21.723938
2018-07-28T04:21:07.818Z,21.854858
2018-07-28T04:22:23.682Z,21.74408
2018-07-28T04:23:39.612Z,21.683655
2018-07-28T04:24:55.534Z,21.633301
2018-07-28T04:26:11.398Z,21.834717
2018-07-28T04:27:27.255Z,21.905212
2018-07-28T04:28:43.128Z,21.875
2018-07-28T04:29:59.003Z,21.814575
2018-07-28T04:31:14.891Z,21.532593
2018-07-28T04:32:30.743Z,21.532593
2018-07-28T04:33:46.611Z,21.74408
2018-07-28T04:35:02.491Z,21.875
2018-07-28T04:38:03.112Z,21.593018
2018-07-28T04:39:18.957Z,21.532593
2018-07-28T04:40:34.802Z,21.542664
2018-07-28T04:41:50.667Z,21.482239
2018-07-28T04:43:06.517Z,21.50238
2018-07-28T04:44:22.387Z,21.472168
2018-07-28T04:45:38.245Z,21.542664
2018-07-28T04:46:54.136Z,21.653442
2018-07-28T04:48:10.021Z,21.875
2018-07-28T04:49:25.897Z,21.99585
2018-07-28T04:50:41.783Z,22.156982
2018-07-28T04:51:57.709Z,22.146912
2018-07-28T04:53:13.569Z,22.036133
2018-07-28T04:54:29.440Z,22.026062
2018-07-28T04:55:45.445Z,22.00592
2018-07-28T04:57:01.319Z,22.056274
2018-07-28T04:58:17.212Z,21.915283
2018-07-28T04:59:33.075Z,22.056274
2018-07-28T05:00:48.931Z,22.00592
2018-07-28T05:02:04.838Z,22.036133
2018-07-28T05:03:20.713Z,22.036133
2018-07-28T05:04:36.599Z,22.217407
2018-07-28T05:05:52.458Z,22.156982
2018-07-28T05:07:08.341Z,22.217407
2018-07-28T05:08:24.219Z,22.217407
2018-07-28T05:09:40.100Z,22.227478
2018-07-28T05:10:55.965Z,22.136841
2018-07-28T05:12:11.853Z,22.25769
2018-07-28T05:13:27.711Z,22.438965
2018-07-28T05:14:43.590Z,22.328186
2018-07-28T05:15:59.576Z,22.217407
2018-07-28T05:17:15.349Z,22.187195
2018-07-28T05:18:31.224Z,22.146912
2018-07-28T05:19:47.126Z,22.25769
2018-07-28T05:21:03.017Z,22.207336
2018-07-28T05:22:18.906Z,22.25769
2018-07-28T05:23:34.828Z,22.177124
2018-07-28T05:24:50.683Z,22.026062
2018-07-28T05:26:06.607Z,22.25769
2018-07-28T05:27:22.464Z,22.408752
2018-07-28T05:28:38.375Z,22.489319
2018-07-28T05:29:54.265Z,22.297974
2018-07-28T05:31:10.127Z,22.00592
2018-07-28T05:32:26.001Z,22.116699
2018-07-28T05:33:41.914Z,22.177124
2018-07-28T05:34:57.815Z,22.297974
2018-07-28T05:36:13.729Z,22.24762
2018-07-28T05:37:29.610Z,22.24762
2018-07-28T05:38:45.548Z,22.207336
2018-07-28T05:40:01.456Z,22.227478
2018-07-28T05:41:17.338Z,22.368469
2018-07-28T05:42:33.299Z,22.438965
2018-07-28T05:43:49.154Z,22.408752
2018-07-28T05:45:05.207Z,22.579956
2018-07-28T05:46:21.202Z,22.680664
2018-07-28T05:47:37.092Z,22.771301
2018-07-28T05:48:53.008Z,22.811584
2018-07-28T05:50:08.949Z,22.771301
2018-07-28T05:51:24.901Z,22.841797
2018-07-28T05:52:40.840Z,22.952576
2018-07-28T05:53:56.747Z,22.952576
2018-07-28T05:55:12.685Z,22.952576
2018-07-28T05:56:28.542Z,23.103638
2018-07-28T05:57:44.463Z,23.184204
2018-07-28T05:59:00.352Z,23.234558
2018-07-28T06:00:16.313Z,23.294983
2018-07-28T06:01:32.219Z,23.264771
2018-07-28T06:02:48.170Z,23.264771
2018-07-28T06:04:04.024Z,23.365479
2018-07-28T06:05:19.970Z,23.446045
2018-07-28T06:06:35.874Z,23.365479
2018-07-28T06:07:51.767Z,23.335266
2018-07-28T06:09:07.621Z,23.264771
2018-07-28T06:10:23.520Z,23.415833
2018-07-28T06:11:39.497Z,23.395691
2018-07-28T06:12:55.390Z,23.546753
2018-07-28T06:14:11.321Z,23.516541
2018-07-28T06:15:27.200Z,23.435974
2018-07-28T06:16:43.092Z,23.516541
2018-07-28T06:17:58.971Z,23.657532
2018-07-28T06:19:14.865Z,23.657532
2018-07-28T06:20:30.736Z,23.707886
2018-07-28T06:21:46.669Z,23.738098
2018-07-28T06:23:02.540Z,23.818665
2018-07-28T06:24:18.445Z,23.707886
2018-07-28T06:25:34.329Z,23.707886
2018-07-28T06:26:50.234Z,23.728027
2018-07-28T06:28:07.191Z,23.738098
2018-07-28T06:29:23.076Z,23.687744
2018-07-28T06:30:38.954Z,23.728027
2018-07-28T06:31:54.919Z,23.788452
2018-07-28T06:33:10.814Z,23.838806
2018-07-28T06:34:26.748Z,23.858948
2018-07-28T06:35:42.654Z,23.848877
2018-07-28T06:36:58.574Z,23.788452
2018-07-28T06:38:14.468Z,23.949585
2018-07-28T06:39:30.373Z,24.090576
2018-07-28T06:40:46.253Z,24.040222
2018-07-28T06:42:02.199Z,24.130859
2018-07-28T06:43:18.157Z,24.221497
2018-07-28T06:44:34.076Z,24.291992
2018-07-28T06:45:49.991Z,24.312134
2018-07-28T06:47:05.911Z,24.322205
2018-07-28T06:48:21.844Z,24.342346
2018-07-28T06:49:37.765Z,24.432983
2018-07-28T06:50:53.751Z,24.584045
2018-07-28T06:52:09.707Z,24.634399
2018-07-28T06:53:25.662Z,24.614258
2018-07-28T06:54:41.618Z,24.483337
2018-07-28T06:55:57.582Z,24.432983
2018-07-28T06:57:14.537Z,24.362488
2018-07-28T06:58:30.452Z,24.342346
2018-07-28T06:59:46.307Z,24.362488
2018-07-28T07:01:02.227Z,24.382629
2018-07-28T07:02:18.185Z,24.443054
2018-07-28T07:03:34.174Z,24.584045
2018-07-28T07:04:50.257Z,24.563904
2018-07-28T07:06:06.097Z,24.473267
2018-07-28T07:07:22.062Z,24.412842
2018-07-28T07:08:38.006Z,24.281921
2018-07-28T07:09:53.959Z,24.322205
2018-07-28T07:11:09.874Z,24.281921
2018-07-28T07:12:25.812Z,24.463196
2018-07-28T07:13:41.804Z,24.584045
2018-07-28T07:14:57.791Z,24.563904
2018-07-28T07:16:13.715Z,24.553833
2018-07-28T07:17:29.652Z,24.634399
2018-07-28T07:18:46.599Z,24.594116
2018-07-28T07:20:02.512Z,24.694824
2018-07-28T07:21:18.436Z,24.775391
2018-07-28T07:22:34.406Z,24.735107
2018-07-28T07:23:50.374Z,24.694824
2018-07-28T07:25:06.318Z,24.563904
2018-07-28T07:26:22.257Z,24.584045
2018-07-28T07:27:38.208Z,24.563904
2018-07-28T07:28:54.103Z,24.51355
2018-07-28T07:30:10.036Z,24.503479
2018-07-28T07:31:25.917Z,24.402771
2018-07-28T07:32:41.868Z,24.312134
2018-07-28T07:33:57.787Z,24.281921
2018-07-28T07:35:13.704Z,24.312134
2018-07-28T07:36:29.629Z,24.342346
2018-07-28T07:37:46.644Z,24.312134
2018-07-28T07:39:02.665Z,24.291992
2018-07-28T07:40:18.787Z,24.291992
2018-07-28T07:41:34.885Z,24.251709
2018-07-28T07:42:50.798Z,24.281921
2018-07-28T07:44:06.768Z,24.291992
2018-07-28T07:45:22.684Z,24.100647
2018-07-28T07:46:38.691Z,24.070435
2018-07-28T07:47:54.666Z,24.070435
2018-07-28T07:49:10.657Z,24.01001
2018-07-28T07:50:26.655Z,24.070435
2018-07-28T07:51:42.623Z,24.100647
2018-07-28T07:52:59.718Z,24.040222
2018-07-28T07:54:15.825Z,24.040222
2018-07-28T07:55:31.810Z,23.959656
2018-07-28T07:56:47.779Z,23.949585
2018-07-28T07:58:03.744Z,23.939514
2018-07-28T07:59:19.723Z,23.939514
2018-07-28T08:00:35.653Z,23.939514
2018-07-28T08:01:51.566Z,23.989868
2018-07-28T08:03:07.535Z,23.949585
2018-07-28T08:04:23.427Z,23.959656
2018-07-28T08:05:39.304Z,24.060364
2018-07-28T08:06:55.331Z,24.040222
2018-07-28T08:08:11.224Z,24.130859
2018-07-28T08:09:27.150Z,24.251709
2018-07-28T08:10:43.046Z,24.251709
2018-07-28T08:11:58.945Z,24.26178
2018-07-28T08:13:14.880Z,24.342346
2018-07-28T08:14:30.905Z,24.443054
2018-07-28T08:15:46.858Z,24.432983
2018-07-28T08:17:02.773Z,24.483337
2018-07-28T08:18:18.751Z,24.584045
2018-07-28T08:19:34.686Z,24.694824
2018-07-28T08:20:50.672Z,24.664612
2018-07-28T08:22:06.581Z,24.634399
2018-07-28T08:23:22.496Z,24.584045
2018-07-28T08:24:38.387Z,24.563904
2018-07-28T08:25:54.283Z,24.51355
2018-07-28T08:27:10.232Z,24.51355
2018-07-28T08:28:26.154Z,24.503479
2018-07-28T08:29:41.990Z,24.412842
2018-07-28T08:30:57.950Z,24.372559
2018-07-28T08:32:13.905Z,24.281921
2018-07-28T08:33:29.901Z,24.312134
2018-07-28T08:34:45.704Z,24.372559
2018-07-28T08:36:01.646Z,24.372559
2018-07-28T08:37:17.552Z,24.412842
2018-07-28T08:38:33.452Z,24.463196
2018-07-28T08:39:49.499Z,24.432983
2018-07-28T08:41:05.381Z,24.443054
2018-07-28T08:42:21.337Z,24.412842
2018-07-28T08:43:37.252Z,24.362488
2018-07-28T08:44:53.185Z,24.322205
2018-07-28T08:46:09.125Z,24.362488
2018-07-28T08:47:25.075Z,24.372559
2018-07-28T08:48:40.990Z,24.211426
2018-07-28T08:49:56.899Z,24.281921
2018-07-28T08:51:12.809Z,24.432983
2018-07-28T08:52:28.805Z,24.503479
2018-07-28T08:53:44.724Z,24.372559
2018-07-28T08:55:00.632Z,24.402771
2018-07-28T08:56:16.580Z,24.473267
2018-07-28T08:57:32.554Z,24.563904
2018-07-28T08:58:48.437Z,24.584045
2018-07-28T09:00:04.318Z,24.51355
2018-07-28T09:01:20.262Z,24.473267
2018-07-28T09:02:36.158Z,24.443054
2018-07-28T09:03:52.135Z,24.372559
2018-07-28T09:05:08.065Z,24.312134
2018-07-28T09:06:24.013Z,24.211426
2018-07-28T09:07:39.894Z,24.312134
2018-07-28T09:08:55.884Z,24.362488
2018-07-28T09:10:11.842Z,24.362488
2018-07-28T09:11:27.735Z,24.342346
2018-07-28T09:12:43.660Z,24.191284
2018-07-28T09:13:59.570Z,24.090576
2018-07-28T09:15:15.532Z,24.110718
2018-07-28T09:16:31.523Z,24.251709
2018-07-28T09:17:47.536Z,24.312134
2018-07-28T09:19:03.519Z,24.312134
2018-07-28T09:20:19.458Z,24.291992
2018-07-28T09:21:35.432Z,24.251709
2018-07-28T09:22:51.431Z,24.251709
2018-07-28T09:24:07.397Z,24.402771
2018-07-28T09:25:23.300Z,24.473267
2018-07-28T09:26:39.262Z,24.533691
2018-07-28T09:27:55.198Z,24.614258
2018-07-28T09:29:11.132Z,24.412842
2018-07-28T09:30:27.083Z,24.412842
2018-07-28T09:31:43.182Z,24.342346
2018-07-28T09:32:59.128Z,24.372559
2018-07-28T09:34:15.069Z,24.241638
2018-07-28T09:35:31.013Z,24.241638
2018-07-28T09:36:47.026Z,24.161072
2018-07-28T09:38:03.020Z,24.412842
2018-07-28T09:39:18.965Z,24.584045
2018-07-28T09:40:34.883Z,24.372559
2018-07-28T09:41:50.853Z,24.402771
2018-07-28T09:43:06.787Z,24.473267
2018-07-28T09:46:04.577Z,24.594116
2018-07-28T09:47:20.506Z,24.563904
2018-07-28T09:48:36.491Z,24.594116
2018-07-28T09:49:52.483Z,24.634399
2018-07-28T09:51:08.418Z,24.443054
2018-07-28T09:52:24.352Z,24.402771
2018-07-28T09:53:40.271Z,24.342346
2018-07-28T09:54:56.239Z,24.281921
2018-07-28T09:56:13.269Z,24.281921
2018-07-28T09:57:29.227Z,24.312134
2018-07-28T09:58:45.160Z,24.362488
2018-07-28T10:00:01.128Z,24.291992
2018-07-28T10:03:01.613Z,24.291992
2018-07-28T10:04:17.532Z,24.412842
2018-07-28T10:05:33.567Z,24.533691
2018-07-28T10:06:49.489Z,24.584045
2018-07-28T10:08:05.443Z,24.634399
2018-07-28T10:09:21.341Z,24.443054
2018-07-28T10:10:37.277Z,24.382629
2018-07-28T10:11:53.179Z,24.594116
2018-07-28T10:13:09.103Z,24.916382
2018-07-28T10:14:24.999Z,25.067444
2018-07-28T10:15:40.919Z,25.178223
2018-07-28T10:16:56.864Z,25.158081
2018-07-28T10:18:12.874Z,25.299072
2018-07-28T10:19:28.825Z,25.389709
2018-07-28T10:20:44.715Z,25.429993
2018-07-28T10:22:00.660Z,25.339355
2018-07-28T10:23:16.635Z,25.329285
2018-07-28T10:24:32.614Z,25.39978
2018-07-28T10:25:48.478Z,25.409851
2018-07-28T10:27:04.352Z,25.218506
2018-07-28T10:28:20.335Z,25.218506
2018-07-28T10:29:36.262Z,25.188293
2018-07-28T10:30:52.161Z,25.460205
2018-07-28T10:32:08.110Z,25.611267
2018-07-28T10:33:24.095Z,25.701904
2018-07-28T10:34:40.015Z,25.852966
2018-07-28T10:35:55.937Z,25.913391
2018-07-28T10:37:11.927Z,25.7724
2018-07-28T10:38:27.842Z,25.832825
2018-07-28T10:39:43.772Z,25.732117
2018-07-28T10:40:59.672Z,25.782471
2018-07-28T10:42:15.578Z,25.993958
2018-07-28T10:43:31.539Z,26.014099
2018-07-28T10:44:47.451Z,25.671692
2018-07-28T10:46:03.351Z,25.953674
2018-07-28T10:47:19.232Z,26.286011
2018-07-28T10:48:35.139Z,26.286011
2018-07-28T10:49:51.021Z,26.366577
2018-07-28T10:51:06.951Z,26.336365
2018-07-28T10:52:22.939Z,26.447144
2018-07-28T10:53:38.845Z,26.40686
2018-07-28T10:54:54.751Z,26.356506
2018-07-28T10:56:10.672Z,26.447144
2018-07-28T10:57:26.652Z,26.517639
2018-07-28T10:58:42.496Z,26.759338
2018-07-28T10:59:58.452Z,26.920471
2018-07-28T11:01:14.301Z,27.001038
2018-07-28T11:02:30.221Z,26.9104
2018-07-28T11:03:46.152Z,27.051392
2018-07-28T11:05:02.082Z,27.011108
2018-07-28T11:06:17.993Z,27.293091
2018-07-28T11:07:33.923Z,27.575073
2018-07-28T11:08:49.845Z,27.554932
2018-07-28T11:10:05.801Z,27.524719
2018-07-28T11:11:21.848Z,27.53479
2018-07-28T11:12:37.745Z,27.605286
2018-07-28T11:13:53.684Z,27.776489
2018-07-28T11:15:09.637Z,27.927551
2018-07-28T11:16:25.521Z,27.484436
2018-07-28T11:17:41.471Z,27.41394
2018-07-28T11:20:38.246Z,27.857056
2018-07-28T11:21:54.181Z,27.90741
2018-07-28T11:23:10.101Z,27.806702
2018-07-28T11:24:26.056Z,27.857056
2018-07-28T11:25:41.947Z,27.877197
2018-07-28T11:26:57.853Z,27.937622
2018-07-28T11:28:13.804Z,28.118896
2018-07-28T11:29:29.765Z,28.149109
2018-07-28T11:30:45.764Z,28.199463
2018-07-28T11:32:01.770Z,28.199463
2018-07-28T11:33:17.734Z,28.03833
2018-07-28T11:34:33.631Z,28.249817
2018-07-28T11:35:49.593Z,28.330383
2018-07-28T11:37:05.548Z,28.269958
2018-07-28T11:38:21.474Z,28.461304
2018-07-28T11:39:37.400Z,28.491516
2018-07-28T11:40:53.460Z,28.471375
2018-07-28T11:42:09.456Z,28.562012
2018-07-28T11:43:25.339Z,28.300171
2018-07-28T11:44:41.277Z,28.149109
2018-07-28T11:45:57.338Z,27.998047
2018-07-28T11:47:13.204Z,28.098755
2018-07-28T11:48:29.142Z,28.128967
2018-07-28T11:49:46.086Z,28.15918
2018-07-28T11:51:02.078Z,28.330383
2018-07-28T11:52:18.013Z,28.451233
2018-07-28T11:53:33.909Z,28.380737
2018-07-28T11:54:49.837Z,28.088684
2018-07-28T11:56:05.757Z,28.118896
2018-07-28T11:57:22.667Z,28.078613
2018-07-28T11:58:38.592Z,28.128967
2018-07-28T11:59:54.564Z,27.846985
2018-07-28T12:01:10.478Z,27.262878
2018-07-28T12:02:26.411Z,27.202454
2018-07-28T12:03:42.319Z,27.041321
2018-07-28T12:04:58.233Z,26.9104
2018-07-28T12:06:14.274Z,26.849976
2018-07-28T12:07:30.273Z,26.860046
2018-07-28T12:08:46.180Z,27.051392
2018-07-28T12:10:02.117Z,27.182312
2018-07-28T12:11:18.052Z,27.16217
2018-07-28T12:12:34.081Z,27.252808
2018-07-28T12:13:49.889Z,27.373657
2018-07-28T12:15:05.791Z,27.303162
2018-07-28T12:16:21.705Z,27.232666
2018-07-28T12:17:37.634Z,27.1521
2018-07-28T12:18:53.523Z,27.222595
2018-07-28T12:20:09.454Z,27.373657
2018-07-28T12:21:25.433Z,27.383728
2018-07-28T12:22:41.374Z,27.353516
2018-07-28T12:23:57.293Z,27.40387
2018-07-28T12:25:13.245Z,27.41394
2018-07-28T12:26:29.173Z,27.504578
2018-07-28T12:27:45.076Z,27.474365
2018-07-28T12:29:01.011Z,27.504578
2018-07-28T12:30:16.941Z,27.40387
2018-07-28T12:31:32.884Z,27.303162
2018-07-28T12:32:48.844Z,27.41394
2018-07-28T12:34:04.751Z,27.40387
2018-07-28T12:35:20.679Z,27.484436
2018-07-28T12:36:36.589Z,27.524719
2018-07-28T12:37:52.514Z,27.474365
2018-07-28T12:39:08.441Z,27.41394
2018-07-28T12:40:24.377Z,27.182312
2018-07-28T12:41:40.333Z,27.071533
2018-07-28T12:42:56.270Z,27.03125
2018-07-28T12:44:12.292Z,27.101746
2018-07-28T12:45:28.196Z,27.101746
2018-07-28T12:46:44.104Z,26.960754
2018-07-28T12:48:00.001Z,26.880188
2018-07-28T12:49:16.159Z,26.829834
2018-07-28T12:50:33.241Z,26.890259
2018-07-28T12:51:49.728Z,26.920471
2018-07-28T12:53:05.639Z,26.789551
2018-07-28T12:54:21.595Z,26.638489
2018-07-28T12:55:37.584Z,26.608276
2018-07-28T12:56:53.494Z,26.598206
2018-07-28T12:58:09.467Z,26.678772
2018-07-28T12:59:25.420Z,26.65863
2018-07-28T13:00:41.395Z,26.517639
2018-07-28T13:01:57.324Z,26.447144
2018-07-28T13:03:13.251Z,26.487427
2018-07-28T13:04:29.213Z,26.557922
2018-07-28T13:05:45.154Z,26.557922
2018-07-28T13:07:01.082Z,26.517639
2018-07-28T13:08:17.021Z,26.588135
2018-07-28T13:09:32.993Z,26.557922
2018-07-28T13:10:48.916Z,26.416931
2018-07-28T13:12:04.894Z,26.547852
2018-07-28T13:13:20.836Z,26.477356
2018-07-28T13:14:36.775Z,26.557922
2018-07-28T13:15:52.704Z,26.638489
2018-07-28T13:17:08.615Z,26.457214
2018-07-28T13:18:24.556Z,26.507568
2018-07-28T13:19:40.467Z,26.628418
2018-07-28T13:20:56.423Z,26.819763
2018-07-28T13:22:12.357Z,26.789551
2018-07-28T13:23:28.360Z,26.65863
2018-07-28T13:24:44.317Z,26.829834
2018-07-28T13:26:00.238Z,26.920471
2018-07-28T13:27:16.168Z,27.03125
2018-07-28T13:28:32.060Z,26.930542
2018-07-28T13:29:48.035Z,26.880188
2018-07-28T13:31:04.084Z,26.970825
2018-07-28T13:32:20.009Z,27.041321
2018-07-28T13:33:35.948Z,27.101746
2018-07-28T13:34:51.863Z,27.182312
2018-07-28T13:36:07.787Z,27.182312
2018-07-28T13:37:23.741Z,27.16217
2018-07-28T13:38:39.731Z,27.182312
2018-07-28T13:39:55.984Z,27.111816
2018-07-28T13:41:11.980Z,27.001038
2018-07-28T13:42:27.891Z,27.011108
2018-07-28T13:43:43.786Z,27.293091
2018-07-28T13:44:59.681Z,27.40387
2018-07-28T13:46:15.608Z,27.353516
2018-07-28T13:47:31.566Z,27.444153
2018-07-28T13:48:47.510Z,27.444153
2018-07-28T13:50:03.431Z,27.605286
2018-07-28T13:51:19.409Z,27.705994
2018-07-28T13:52:35.325Z,27.66571
2018-07-28T13:53:51.270Z,27.343445
2018-07-28T13:55:07.192Z,27.343445
2018-07-28T13:56:23.089Z,27.293091
2018-07-28T13:57:39.043Z,27.262878
2018-07-28T13:58:54.998Z,27.373657
2018-07-28T14:00:10.997Z,27.182312
2018-07-28T14:01:26.839Z,26.789551
2018-07-28T14:02:42.832Z,26.759338
2018-07-28T14:03:58.724Z,26.809692
2018-07-28T14:05:14.704Z,26.698914
2018-07-28T14:06:30.608Z,26.608276
2018-07-28T14:07:46.602Z,26.447144
2018-07-28T14:09:04.454Z,26.40686
2018-07-28T14:10:20.406Z,26.447144
2018-07-28T14:11:36.381Z,26.507568
2018-07-28T14:12:52.328Z,26.598206
2018-07-28T14:14:08.341Z,26.708984
2018-07-28T14:17:04.941Z,26.487427
2018-07-28T14:18:20.963Z,26.507568
2018-07-28T14:19:36.786Z,26.416931
2018-07-28T14:20:52.708Z,26.40686
2018-07-28T14:22:08.626Z,26.225586
2018-07-28T14:23:24.572Z,26.185303
2018-07-28T14:24:40.578Z,26.175232
2018-07-28T14:25:56.476Z,26.044312
2018-07-28T14:27:12.382Z,26.104736
2018-07-28T14:28:28.337Z,26.114807
2018-07-28T14:29:44.377Z,26.215515
2018-07-28T14:31:00.301Z,26.286011
2018-07-28T14:32:16.228Z,26.366577
2018-07-28T14:33:32.171Z,26.356506
2018-07-28T14:34:48.108Z,26.296082
2018-07-28T14:36:04.051Z,26.416931
2018-07-28T14:37:19.958Z,26.52771